.
WxDataArchive / Data Records for 2010-05-26
2010-05-25 May 2010 2010-05-27

Data Records for Wednesday, 26 May 2010

Time	Temp	Chill	HIndex	Humid	Dewpt	 Wind 	HiWind	WindDir	Rain 	Barom 
-----	----	-----	------	-----	-----	------	------	-------	-----	----- 
00:00	72.1	72.1	72.1	75	63.7	0	0	---	0.00	30.055 
00:05	71.8	71.8	71.8	75	63.4	0	0	---	0.00	30.055 
00:10	71.6	71.6	71.6	76	63.6	0	0	---	0.00	30.055 
00:15	71.5	71.5	71.5	77	63.9	0	1	0	0.00	30.052 
00:20	71.3	71.3	71.3	78	64.1	0	0	---	0.00	30.052 
00:25	71.1	71.1	71.1	78	63.9	0	0	---	0.00	30.052 
00:30	70.9	70.9	70.9	79	64.1	0	0	---	0.00	30.057 
00:35	70.9	70.9	70.9	79	64.1	1	3	90	0.00	30.057 
00:40	70.9	70.9	70.9	78	63.7	1	7	112	0.00	30.057 
00:45	70.9	70.9	70.9	78	63.7	0	0	---	0.00	30.056 
00:50	70.9	70.9	70.9	78	63.7	0	0	---	0.00	30.056 
00:55	70.8	70.8	70.8	78	63.6	0	0	---	0.00	30.056 
01:00	70.6	70.6	70.6	79	63.8	0	0	---	0.00	30.055 
01:05	70.3	70.3	70.3	79	63.5	0	0	---	0.00	30.055 
01:10	70.1	70.1	70.1	80	63.6	0	0	---	0.00	30.055 
01:15	69.8	69.8	69.8	81	63.7	0	0	---	0.00	30.055 
01:20	69.6	69.6	69.6	81	63.5	0	0	---	0.00	30.055 
01:25	69.4	69.4	69.4	82	63.7	0	0	---	0.00	30.055 
01:30	69.3	69.3	69.3	82	63.6	0	1	112	0.00	30.055 
01:35	69.3	69.3	69.3	82	63.6	0	0	---	0.00	30.055 
01:40	69.1	69.1	69.1	82	63.4	0	0	---	0.00	30.055 
01:45	69.1	69.1	69.1	82	63.4	0	1	112	0.00	30.054 
01:50	69.1	69.1	69.1	82	63.4	0	2	112	0.00	30.054 
01:55	68.9	68.9	68.9	82	63.2	0	0	---	0.00	30.054 
02:00	68.8	68.8	68.8	83	63.4	0	0	---	0.00	30.052 
02:05	68.8	68.8	68.8	83	63.4	0	1	112	0.00	30.052 
02:10	68.6	68.6	68.6	83	63.2	0	1	112	0.00	30.052 
02:15	68.6	68.6	68.6	83	63.2	0	0	---	0.00	30.049 
02:20	68.6	68.6	68.6	83	63.2	0	1	112	0.00	30.049 
02:25	68.4	68.4	68.4	83	63.0	0	0	---	0.00	30.049 
02:30	68.4	68.4	68.4	83	63.0	0	0	---	0.00	30.046 
02:35	68.3	68.3	68.3	84	63.3	0	0	---	0.00	30.046 
02:40	68.3	68.3	68.3	84	63.3	0	0	---	0.00	30.046 
02:45	68.1	68.1	68.1	84	63.1	0	0	---	0.00	30.046 
02:50	67.9	67.9	67.9	84	62.9	0	0	---	0.00	30.046 
02:55	67.8	67.8	67.8	84	62.8	0	0	---	0.00	30.046 
03:00	67.6	67.6	67.6	84	62.6	0	0	---	0.00	30.047 
03:05	67.3	67.3	67.3	85	62.6	0	0	---	0.00	30.047 
03:10	67.1	67.1	67.1	86	62.8	0	0	---	0.00	30.047 
03:15	66.8	66.8	66.8	86	62.5	0	0	---	0.00	30.043 
03:20	66.6	66.6	66.6	86	62.3	0	0	---	0.00	30.043 
03:25	66.4	66.4	66.4	86	62.1	0	0	---	0.00	30.043 
03:30	66.3	66.3	66.3	87	62.3	0	0	---	0.00	30.039 
03:35	66.1	66.1	66.1	87	62.1	0	0	---	0.00	30.039 
03:40	66.0	66.0	66.0	88	62.3	0	0	---	0.00	30.039 
03:45	65.6	65.6	65.6	88	61.9	0	0	---	0.00	30.042 
03:50	65.5	65.5	65.5	88	61.8	0	0	---	0.00	30.042 
03:55	65.3	65.3	65.3	89	62.0	0	0	---	0.00	30.042 
04:00	65.2	65.2	65.2	89	61.9	0	0	---	0.00	30.042 
04:05	65.2	65.2	65.2	89	61.9	0	0	---	0.00	30.042 
04:10	65.0	65.0	65.0	90	62.0	0	0	---	0.00	30.042 
04:15	64.8	64.8	64.8	90	61.8	0	0	---	0.00	30.042 
04:20	64.7	64.7	64.7	90	61.7	0	0	---	0.00	30.042 
04:25	64.7	64.7	64.7	91	62.0	0	0	---	0.00	30.042 
04:30	64.7	64.7	64.7	91	62.0	0	0	---	0.00	30.047 
04:35	64.5	64.5	64.5	91	61.8	0	0	---	0.00	30.047 
04:40	64.3	64.3	64.3	91	61.6	0	0	---	0.00	30.047 
04:45	64.3	64.3	64.3	92	61.9	0	0	---	0.00	30.049 
04:50	64.3	64.3	64.3	92	61.9	0	0	---	0.00	30.049 
04:55	64.2	64.2	64.2	92	61.8	0	0	---	0.00	30.049 
05:00	64.2	64.2	64.2	92	61.8	0	0	---	0.00	30.045 
05:05	64.0	64.0	64.0	92	61.6	0	0	---	0.00	30.045 
05:10	63.9	63.9	63.9	92	61.5	0	0	---	0.00	30.045 
05:15	63.9	63.9	63.9	92	61.5	0	0	---	0.00	30.043 
05:20	63.7	63.7	63.7	93	61.6	0	0	---	0.00	30.043 
05:25	63.7	63.7	63.7	93	61.6	0	0	---	0.00	30.043 
05:30	63.5	63.5	63.5	93	61.4	0	0	---	0.00	30.045 
05:35	63.5	63.5	63.5	93	61.4	0	0	---	0.00	30.045 
05:40	63.5	63.5	63.5	93	61.4	0	0	---	0.00	30.045 
05:45	63.5	63.5	63.5	93	61.4	0	0	---	0.00	30.044 
05:50	63.4	63.4	63.4	93	61.3	0	0	---	0.00	30.044 
05:55	63.4	63.4	63.4	93	61.3	0	0	---	0.00	30.044 
06:00	63.2	63.2	63.2	93	61.1	0	0	---	0.00	30.044 
06:05	63.2	63.2	63.2	93	61.1	0	0	---	0.00	30.044 
06:10	63.2	63.2	63.2	93	61.1	0	0	---	0.00	30.044 
06:15	63.1	63.1	63.1	93	61.0	0	0	---	0.00	30.048 
06:20	62.9	62.9	62.9	94	61.1	0	0	---	0.00	30.048 
06:25	62.9	62.9	62.9	94	61.1	0	0	---	0.00	30.048 
06:30	62.9	62.9	62.9	94	61.1	0	0	---	0.00	30.053 
06:35	62.9	62.9	62.9	94	61.1	0	0	---	0.00	30.053 
06:40	62.9	62.9	62.9	94	61.1	0	0	---	0.00	30.053 
06:45	62.9	62.9	62.9	94	61.1	0	0	---	0.00	30.055 
06:50	63.1	63.1	63.1	94	61.3	0	0	---	0.00	30.055 
06:55	63.2	63.2	63.2	94	61.4	0	0	---	0.00	30.055 
07:00	63.2	63.2	63.2	94	61.4	0	0	---	0.00	30.055 
07:05	63.4	63.4	63.4	94	61.6	0	0	---	0.00	30.055 
07:10	63.5	63.5	63.5	95	62.0	0	0	---	0.00	30.055 
07:15	63.9	63.9	63.9	95	62.4	0	0	---	0.00	30.056 
07:20	64.2	64.2	64.2	95	62.7	0	0	---	0.00	30.056 
07:25	64.8	64.8	64.8	96	63.6	0	0	---	0.00	30.056 
07:30	65.6	65.6	65.6	95	64.1	0	0	---	0.00	30.058 
07:35	66.4	66.4	66.4	95	64.9	0	0	---	0.00	30.058 
07:40	67.3	67.3	67.3	93	65.2	0	0	---	0.00	30.058 
07:45	67.8	67.8	67.8	92	65.4	0	0	---	0.00	30.056 
07:50	68.6	68.6	68.6	91	65.9	0	0	---	0.00	30.056 
07:55	69.8	69.8	69.8	86	65.4	0	0	---	0.00	30.056 
08:00	70.9	70.9	70.9	83	65.5	0	0	---	0.00	30.054 
08:05	72.0	72.0	72.0	79	65.1	0	0	---	0.00	30.054 
08:10	73.2	73.2	73.2	77	65.5	0	0	---	0.00	30.054 
08:15	74.0	74.0	74.0	75	65.6	0	0	---	0.00	30.054 
08:20	74.7	74.7	74.7	73	65.5	0	0	---	0.00	30.054 
08:25	74.9	74.9	74.9	73	65.6	0	0	---	0.00	30.054 
08:30	74.9	74.9	74.9	73	65.6	0	0	---	0.00	30.053 
08:35	75.4	75.4	77.1	70	64.9	0	0	---	0.00	30.053 
08:40	75.8	75.8	77.4	70	65.3	0	0	---	0.00	30.053 
08:45	76.0	76.0	77.7	70	65.5	0	0	---	0.00	30.053 
08:50	76.1	76.1	77.8	69	65.2	0	0	---	0.00	30.053 
08:55	76.3	76.3	78.0	69	65.4	0	0	---	0.00	30.053 
09:00	76.5	76.5	78.2	69	65.6	0	0	---	0.00	30.053 
09:05	76.8	76.8	78.6	69	65.8	0	0	---	0.00	30.053 
09:10	77.2	77.2	79.0	68	65.8	0	0	---	0.00	30.053 
09:15	77.4	77.4	79.2	66	65.1	0	0	---	0.00	30.056 
09:20	77.7	77.7	79.6	66	65.4	0	0	---	0.00	30.056 
09:25	77.9	77.9	79.7	65	65.2	0	0	---	0.00	30.056 
09:30	78.3	78.3	80.2	66	66.0	0	0	---	0.00	30.053 
09:35	78.6	78.6	80.6	65	65.8	0	0	---	0.00	30.053 
09:40	78.8	78.8	80.8	65	66.0	0	0	---	0.00	30.053 
09:45	79.6	79.6	81.6	63	65.9	0	0	---	0.00	30.049 
09:50	79.6	79.6	81.4	61	64.9	0	0	---	0.00	30.049 
09:55	79.8	79.8	81.8	62	65.6	0	0	---	0.00	30.049 
10:00	79.8	79.8	81.6	60	64.7	0	0	---	0.00	30.048 
10:05	80.1	80.1	81.9	60	64.9	0	1	315	0.00	30.048 
10:10	80.5	80.5	82.4	60	65.3	0	2	315	0.00	30.048 
10:15	80.9	80.9	82.9	60	65.7	0	2	315	0.00	30.044 
10:20	80.9	80.9	82.7	58	64.7	0	2	315	0.00	30.044 
10:25	81.2	81.2	83.2	59	65.5	0	2	315	0.00	30.044 
10:30	81.6	81.6	83.9	60	66.3	1	3	292	0.00	30.040 
10:35	81.6	81.6	83.5	58	65.4	0	2	292	0.00	30.040 
10:40	82.0	82.0	83.7	56	64.7	0	1	292	0.00	30.040 
10:45	82.0	82.0	83.4	54	63.7	0	1	292	0.00	30.038 
10:50	82.0	82.0	83.4	54	63.7	0	2	292	0.00	30.038 
10:55	82.4	82.4	83.9	54	64.1	0	1	292	0.00	30.038 
11:00	82.8	82.8	84.6	55	65.0	0	2	292	0.00	30.035 
11:05	83.2	83.2	84.9	54	64.8	0	2	315	0.00	30.035 
11:10	83.4	83.4	85.0	53	64.4	0	1	315	0.00	30.035 
11:15	84.0	84.0	85.8	53	65.0	0	1	315	0.00	30.033 
11:20	84.1	84.1	85.9	53	65.1	0	2	315	0.00	30.033 
11:25	84.1	84.1	85.3	50	63.4	0	2	315	0.00	30.033 
11:30	84.7	84.7	86.5	52	65.1	0	3	45	0.00	30.030 
11:35	84.7	84.7	86.5	52	65.1	0	2	45	0.00	30.030 
11:40	84.7	84.7	86.0	50	64.0	1	4	45	0.00	30.030 
11:45	85.1	85.1	86.1	48	63.2	1	4	45	0.00	30.030 
11:50	85.3	85.3	87.1	51	65.1	1	3	112	0.00	30.030 
11:55	85.3	85.3	86.1	47	62.8	0	2	112	0.00	30.030 
12:00	85.3	85.3	87.4	52	65.6	1	3	180	0.00	30.026 
12:05	85.3	85.3	86.9	50	64.5	1	3	202	0.00	30.026 
12:10	85.7	85.7	86.4	46	62.5	1	3	45	0.00	30.026 
12:15	86.1	86.1	86.7	45	62.2	0	3	68	0.00	30.024 
12:20	86.1	86.1	86.7	45	62.2	1	4	45	0.00	30.024 
12:25	86.1	86.1	87.2	47	63.5	0	2	338	0.00	30.024 
12:30	87.0	87.0	88.2	46	63.7	1	2	338	0.00	30.020 
12:35	87.4	87.4	88.2	44	62.8	0	2	22	0.00	30.020 
12:40	87.6	87.6	89.4	47	64.8	0	1	22	0.00	30.020 
12:45	86.5	86.5	87.5	46	63.2	0	1	22	0.00	30.018 
12:50	85.1	85.1	85.9	47	62.6	0	1	22	0.00	30.018 
12:55	84.1	84.1	85.0	49	62.8	0	0	---	0.00	30.018 
13:00	83.6	83.6	84.4	49	62.4	0	0	---	0.00	30.020 
13:05	83.6	83.6	84.6	50	63.0	0	0	---	0.00	30.020 
13:10	83.6	83.6	85.0	52	64.1	0	1	22	0.00	30.020 
13:15	83.4	83.4	84.6	51	63.3	0	1	22	0.00	30.015 
13:20	83.8	83.8	85.3	52	64.3	0	1	22	0.00	30.015 
13:25	84.5	84.5	85.6	49	63.2	0	2	22	0.00	30.015 
13:30	85.5	85.5	87.7	52	65.8	0	3	292	0.00	30.007 
13:35	86.3	86.3	87.0	45	62.4	1	3	22	0.00	30.007 
13:40	86.5	86.5	87.2	45	62.6	0	1	45	0.00	30.007 
13:45	86.5	86.5	87.8	47	63.8	1	3	45	0.00	30.003 
13:50	86.5	86.5	87.5	46	63.2	1	4	45	0.00	30.003 
13:55	86.5	86.5	86.7	43	61.3	1	3	45	0.00	30.003 
14:00	86.7	86.7	87.8	46	63.4	1	3	68	0.00	29.996 
14:05	87.2	87.2	87.6	43	61.9	1	3	68	0.00	29.996 
14:10	87.4	87.4	88.8	46	64.0	0	3	270	0.00	29.996 
14:15	87.0	87.0	88.2	46	63.7	1	3	270	0.00	29.992 
14:20	87.0	87.0	88.5	47	64.3	1	2	270	0.00	29.992 
14:25	87.2	87.2	88.2	45	63.2	0	2	270	0.00	29.992 
14:30	87.2	87.2	87.9	44	62.6	0	2	292	0.00	29.991 
14:35	87.6	87.6	88.2	43	62.3	0	2	292	0.00	29.991 
14:40	88.0	88.0	88.7	43	62.7	0	3	68	0.00	29.991 
14:45	87.8	87.8	89.1	45	63.8	0	2	68	0.00	29.988 
14:50	87.4	87.4	87.6	42	61.5	0	2	68	0.00	29.988 
14:55	86.7	86.7	87.0	43	61.5	0	2	68	0.00	29.988 
15:00	86.5	86.5	87.0	44	62.0	0	1	68	0.00	29.983 
15:05	86.7	86.7	86.7	42	60.8	0	2	68	0.00	29.983 
15:10	87.4	87.4	88.5	45	63.4	0	1	68	0.00	29.983 
15:15	87.4	87.4	87.4	41	60.8	1	4	68	0.00	29.983 
15:20	87.6	87.6	87.6	41	60.9	0	2	68	0.00	29.983 
15:25	88.0	88.0	88.7	43	62.7	1	3	68	0.00	29.983 
15:30	88.4	88.4	88.2	39	60.3	0	2	45	0.00	29.979 
15:35	88.6	88.6	89.0	41	61.8	0	1	45	0.00	29.979 
15:40	88.8	88.8	89.3	41	62.0	0	2	45	0.00	29.979 
15:45	88.8	88.8	89.0	40	61.3	1	3	68	0.00	29.975 
15:50	88.4	88.4	88.2	39	60.3	1	4	68	0.00	29.975 
15:55	88.6	88.6	89.0	41	61.8	1	3	90	0.00	29.975 
16:00	88.4	88.4	88.7	41	61.7	1	3	90	0.00	29.965 
16:05	88.0	88.0	88.2	41	61.3	0	1	90	0.00	29.965 
16:10	87.6	87.6	87.9	42	61.6	0	1	90	0.00	29.965 
16:15	87.0	87.0	87.4	43	61.8	0	0	---	0.00	29.962 
16:20	86.5	86.5	86.3	41	60.0	0	2	90	0.00	29.962 
16:25	86.3	86.3	86.2	42	60.5	0	1	90	0.00	29.962 
16:30	86.1	86.1	86.2	43	61.0	0	1	90	0.00	29.954 
16:35	85.7	85.7	86.0	44	61.2	0	1	90	0.00	29.954 
16:40	85.5	85.5	86.2	46	62.3	0	0	---	0.00	29.954 
16:45	85.1	85.1	85.0	43	60.1	0	0	---	0.00	29.951 
16:50	84.7	84.7	84.7	44	60.3	0	0	---	0.00	29.951 
16:55	84.5	84.5	86.7	54	66.0	0	0	---	0.00	29.951 
17:00	84.0	84.0	84.9	49	62.8	0	0	---	0.00	29.944 
17:05	83.8	83.8	84.7	49	62.6	0	0	---	0.00	29.944 
17:10	83.6	83.6	84.4	49	62.4	0	0	---	0.00	29.944 
17:15	83.4	83.4	84.4	50	62.8	0	0	---	0.00	29.939 
17:20	83.4	83.4	84.4	50	62.8	0	0	---	0.00	29.939 
17:25	83.4	83.4	84.4	50	62.8	0	0	---	0.00	29.939 
17:30	83.6	83.6	84.1	47	61.2	0	0	---	0.00	29.934 
17:35	84.3	84.3	84.7	46	61.2	0	0	---	0.00	29.934 
17:40	85.7	85.7	86.4	46	62.5	0	1	90	0.00	29.934 
17:45	86.5	86.5	86.7	43	61.3	0	1	90	0.00	29.931 
17:50	87.4	87.4	87.9	43	62.1	0	0	---	0.00	29.931 
17:55	87.8	87.8	88.5	43	62.5	0	1	90	0.00	29.931 
18:00	87.6	87.6	87.9	42	61.6	0	1	90	0.00	29.927 
18:05	87.4	87.4	87.6	42	61.5	0	1	90	0.00	29.927 
18:10	87.2	87.2	87.4	42	61.3	0	0	---	0.00	29.927 
18:15	86.7	86.7	87.2	44	62.1	0	1	90	0.00	29.927 
18:20	86.5	86.5	87.0	44	62.0	0	1	90	0.00	29.927 
18:25	86.3	86.3	86.5	43	61.1	0	1	90	0.00	29.927 
18:30	86.1	86.1	86.7	45	62.2	0	1	90	0.00	29.929 
18:35	86.1	86.1	86.7	45	62.2	0	1	90	0.00	29.929 
18:40	85.7	85.7	86.4	46	62.5	0	0	---	0.00	29.929 
18:45	85.5	85.5	85.9	45	61.7	0	1	90	0.00	29.921 
18:50	85.3	85.3	86.4	48	63.4	0	0	---	0.00	29.921 
18:55	85.1	85.1	86.1	48	63.2	0	1	90	0.00	29.921 
19:00	85.1	85.1	85.9	47	62.6	0	1	90	0.00	29.916 
19:05	85.1	85.1	86.6	50	64.3	0	1	90	0.00	29.916 
19:10	84.7	84.7	86.0	50	64.0	0	1	90	0.00	29.916 
19:15	84.3	84.3	86.0	52	64.7	0	1	90	0.00	29.908 
19:20	84.0	84.0	85.6	52	64.4	0	1	90	0.00	29.908 
19:25	84.0	84.0	85.6	52	64.4	0	1	90	0.00	29.908 
19:30	83.6	83.6	85.0	52	64.1	0	2	90	0.00	29.907 
19:35	83.4	83.4	84.8	52	63.9	0	1	90	0.00	29.907 
19:40	83.2	83.2	84.9	54	64.8	0	0	---	0.00	29.907 
19:45	83.0	83.0	84.7	54	64.6	0	0	---	0.00	29.909 
19:50	82.8	82.8	84.4	54	64.4	0	0	---	0.00	29.909 
19:55	82.6	82.6	84.3	55	64.8	0	0	---	0.00	29.909 
20:00	82.4	82.4	84.1	55	64.6	0	0	---	0.00	29.908 
20:05	82.0	82.0	83.6	55	64.2	0	0	---	0.00	29.908 
20:10	81.8	81.8	83.3	55	64.0	0	0	---	0.00	29.908 
20:15	81.6	81.6	83.2	56	64.4	0	0	---	0.00	29.906 
20:20	81.4	81.4	83.0	56	64.2	0	0	---	0.00	29.906 
20:25	81.1	81.1	82.8	57	64.4	0	0	---	0.00	29.906 
20:30	80.9	80.9	82.7	58	64.7	0	0	---	0.00	29.904 
20:35	80.7	80.7	82.7	60	65.5	0	0	---	0.00	29.904 
20:40	80.3	80.3	82.4	62	66.1	0	0	---	0.00	29.904 
20:45	79.9	79.9	81.9	62	65.7	0	0	---	0.00	29.908 
20:50	79.6	79.6	81.6	63	65.9	0	0	---	0.00	29.908 
20:55	79.0	79.0	81.0	64	65.8	0	0	---	0.00	29.908 
21:00	78.6	78.6	80.6	65	65.8	0	0	---	0.00	29.909 
21:05	78.5	78.5	80.4	65	65.7	0	0	---	0.00	29.909 
21:10	78.1	78.1	80.0	67	66.2	0	0	---	0.00	29.909 
21:15	77.7	77.7	79.6	67	65.8	0	0	---	0.00	29.910 
21:20	77.4	77.4	79.2	68	66.0	0	0	---	0.00	29.910 
21:25	77.0	77.0	78.8	69	66.0	0	0	---	0.00	29.910 
21:30	76.7	76.7	78.4	70	66.2	0	0	---	0.00	29.913 
21:35	76.3	76.3	77.9	71	66.2	0	0	---	0.00	29.913 
21:40	76.0	76.0	77.5	73	66.7	0	0	---	0.00	29.913 
21:45	75.8	75.8	77.3	73	66.5	0	0	---	0.00	29.925 
21:50	75.4	75.4	76.7	74	66.5	0	0	---	0.00	29.925 
21:55	75.3	75.3	76.5	75	66.8	0	0	---	0.00	29.925 
22:00	75.1	75.1	76.2	76	67.0	0	0	---	0.00	29.929 
22:05	74.9	74.9	74.9	76	66.8	0	0	---	0.00	29.929 
22:10	74.6	74.6	74.6	77	66.9	0	0	---	0.00	29.929 
22:15	74.4	74.4	74.4	77	66.7	0	0	---	0.00	29.928 
22:20	74.2	74.2	74.2	78	66.9	0	0	---	0.00	29.928 
22:25	74.0	74.0	74.0	78	66.7	0	0	---	0.00	29.928 
22:30	73.9	73.9	73.9	78	66.6	0	0	---	0.00	29.931 
22:35	73.7	73.7	73.7	79	66.8	0	0	---	0.00	29.931 
22:40	73.5	73.5	73.5	80	66.9	0	0	---	0.00	29.931 
22:45	73.3	73.3	73.3	80	66.7	0	0	---	0.00	29.937 
22:50	73.2	73.2	73.2	81	67.0	0	0	---	0.00	29.937 
22:55	73.0	73.0	73.0	81	66.8	0	0	---	0.00	29.937 
23:00	72.8	72.8	72.8	81	66.6	0	0	---	0.00	29.940 
23:05	72.8	72.8	72.8	81	66.6	0	0	---	0.00	29.940 
23:10	72.7	72.7	72.7	82	66.9	0	0	---	0.00	29.940 
23:15	72.5	72.5	72.5	82	66.7	0	0	---	0.00	29.933 
23:20	72.5	72.5	72.5	82	66.7	0	0	---	0.00	29.933 
23:25	72.3	72.3	72.3	82	66.5	0	0	---	0.00	29.933 
23:30	72.1	72.1	72.1	83	66.6	0	0	---	0.00	29.938 
23:35	72.0	72.0	72.0	83	66.5	0	0	---	0.00	29.938 
23:40	71.8	71.8	71.8	84	66.7	0	0	---	0.00	29.938 
23:45	71.8	71.8	71.8	84	66.7	0	0	---	0.00	29.939 
23:50	71.6	71.6	71.6	84	66.5	0	0	---	0.00	29.939 
23:55	71.6	71.6	71.6	85	66.8	0	0	---	0.00	29.939 

CoCoRaHS
IN-AL-39
A2 Web Hosting
Creative Commons License
GoDaddy
search engine by freefind advanced

loaded 2018-11-16 10:38:51 • last modified 2010-11-18 10:43:29
Privacy PolicyDisclaimer
• wx.awcolley.com is powered by PmWiki v.2002016 •
• all content (unless otherwise noted) © 2018 A W Colley